Time;durP1;ratioP1;P1;durP2;ratioP2;P2;SDS_P1;SDS_P2;PMS_P1;PMS_P2;Temp;Humidity;BMP_temperature;BMP_pressure;BME280_temperature;BME280_humidity;BME280_pressure;Samples;Min_cycle;Max_cycle;Signal;HPM_P1;HPM_P2
2022/10/24 00:01:21;;;;;;;56.33;34.08;;;;;;;9.57;97.33;100372.59;1691766;84;25624;-69
2022/10/24 00:03:49;;;;;;;63.05;36.17;;;;;;;9.54;96.99;100369.95;1701082;83;25384;-69
2022/10/24 00:06:18;;;;;;;58.00;34.27;;;;;;;9.51;96.74;100374.03;1701749;83;27259;-68
2022/10/24 00:08:47;;;;;;;60.65;36.25;;;;;;;9.48;96.90;100373.31;1705649;83;34670;-69
2022/10/24 00:11:19;;;;;;;62.40;33.67;;;;;;;9.48;96.88;100370.61;1703417;83;25322;-68
2022/10/24 00:13:47;;;;;;;50.23;32.48;;;;;;;9.46;97.12;100370.08;1705404;83;25937;-68
2022/10/24 00:16:14;;;;;;;48.15;32.03;;;;;;;9.45;97.12;100373.91;1706790;83;25529;-68
2022/10/24 00:18:42;;;;;;;50.85;31.68;;;;;;;9.44;97.17;100372.29;1675623;82;27175;-68
2022/10/24 00:21:10;;;;;;;51.45;32.75;;;;;;;9.44;97.20;100371.50;1704222;83;25383;-68
2022/10/24 00:23:38;;;;;;;55.92;32.03;;;;;;;9.43;97.24;100377.98;1731014;81;25483;-68
2022/10/24 00:26:06;;;;;;;48.60;29.45;;;;;;;9.43;97.45;100378.80;1702671;82;26319;-68
2022/10/24 00:28:36;;;;;;;49.38;30.95;;;;;;;9.43;97.45;100390.95;1728482;82;25574;-68
2022/10/24 00:31:07;;;;;;;44.38;29.42;;;;;;;9.43;97.67;100384.20;1710681;82;27164;-68
2022/10/24 00:33:34;;;;;;;45.43;29.75;;;;;;;9.45;97.93;100391.45;1734983;82;25668;-68
2022/10/24 00:36:02;;;;;;;46.18;29.45;;;;;;;9.46;98.29;100388.98;1738364;82;25364;-68
2022/10/24 00:38:29;;;;;;;43.95;28.77;;;;;;;9.48;98.39;100389.51;1735767;82;26028;-68
2022/10/24 00:40:56;;;;;;;55.35;31.82;;;;;;;9.51;98.75;100396.20;1721749;82;25389;-68
2022/10/24 00:43:26;;;;;;;54.00;32.40;;;;;;;9.52;98.83;100389.15;1732902;80;27199;-68
2022/10/24 00:45:58;;;;;;;58.75;31.90;;;;;;;9.53;98.72;100384.02;1729246;82;25359;-68
2022/10/24 00:48:40;;;;;;;43.60;28.32;;;;;;;9.52;98.51;100387.01;1719253;82;25637;-67
2022/10/24 00:51:25;;;;;;;41.40;27.80;;;;;;;9.53;98.62;100385.36;1732370;82;25389;-68
2022/10/24 00:53:57;;;;;;;51.13;30.20;;;;;;;9.54;98.55;100388.85;1733533;82;25521;-66
2022/10/24 00:56:30;;;;;;;52.78;27.90;;;;;;;9.55;98.78;100389.08;1709208;82;27295;-67
2022/10/24 00:59:02;;;;;;;41.75;27.60;;;;;;;9.54;98.81;100378.05;1720632;82;25694;-68
2022/10/24 01:01:30;;;;;;;58.42;27.73;;;;;;;9.55;99.01;100376.94;1725042;82;25336;-70
2022/10/24 01:03:57;;;;;;;47.60;27.93;;;;;;;9.56;99.08;100367.75;1739216;82;25387;-70
2022/10/24 01:07:00;;;;;;;40.43;27.65;;;;;;;9.58;99.12;100358.78;1726317;82;25302;-70
2022/10/24 01:09:36;;;;;;;44.30;29.07;;;;;;;9.59;99.21;100357.70;1726059;82;27462;-67
2022/10/24 01:12:24;;;;;;;49.73;29.75;;;;;;;9.59;99.38;100344.20;1734371;82;25491;-67
2022/10/24 01:15:06;;;;;;;47.40;27.07;;;;;;;9.59;99.37;100341.50;1728056;82;25450;-70
2022/10/24 01:18:08;;;;;;;54.00;26.50;;;;;;;9.60;99.42;100344.98;1737584;80;25514;-70
2022/10/24 01:21:23;;;;;;;42.08;27.30;;;;;;;9.61;99.68;100343.90;1733929;81;25522;-70
2022/10/24 01:23:55;;;;;;;41.73;27.17;;;;;;;9.62;99.80;100346.30;1720738;80;29346;-67
2022/10/24 01:26:51;;;;;;;37.60;26.52;;;;;;;9.62;99.64;100350.35;1721741;82;26082;-67
2022/10/24 01:29:45;;;;;;;46.28;28.05;;;;;;;9.63;99.64;100340.34;1740780;82;25468;-69
2022/10/24 01:32:27;;;;;;;39.85;27.00;;;;;;;9.62;99.56;100338.20;1633316;85;25697;-67
2022/10/24 01:35:22;;;;;;;41.30;26.40;;;;;;;9.63;99.67;100337.64;1660161;85;25392;-67
2022/10/24 01:38:13;;;;;;;40.08;27.52;;;;;;;9.63;99.52;100332.23;1624312;86;29450;-69
2022/10/24 01:40:52;;;;;;;39.90;24.80;;;;;;;9.62;99.54;100326.05;1620985;88;25539;-68
2022/10/24 01:43:30;;;;;;;40.10;26.90;;;;;;;9.62;99.61;100327.92;1618282;88;25709;-68
2022/10/24 01:46:05;;;;;;;34.40;24.35;;;;;;;9.61;99.52;100329.84;1617371;87;25473;-68
2022/10/24 01:48:38;;;;;;;36.58;24.77;;;;;;;9.59;99.48;100319.89;1616412;87;25446;-68
2022/10/24 01:51:08;;;;;;;37.73;24.95;;;;;;;9.59;99.38;100313.70;1617269;87;27392;-68
2022/10/24 01:53:37;;;;;;;35.78;26.02;;;;;;;9.58;99.46;100322.33;1618024;88;25572;-68
2022/10/24 01:56:05;;;;;;;55.60;26.60;;;;;;;9.58;99.35;100325.59;1618122;87;25658;-68
2022/10/24 01:58:33;;;;;;;37.33;25.43;;;;;;;9.58;99.36;100318.84;1621989;87;25617;-68
2022/10/24 02:01:05;;;;;;;43.78;25.32;;;;;;;9.56;99.18;100308.34;1618053;88;25657;-68
2022/10/24 02:03:36;;;;;;;49.85;26.50;;;;;;;9.54;99.16;100311.34;1618018;87;27162;-67
2022/10/24 02:06:12;;;;;;;46.90;25.10;;;;;;;9.52;98.88;100314.89;1617901;88;25538;-68
2022/10/24 02:08:45;;;;;;;46.48;26.55;;;;;;;9.51;98.87;100312.49;1657345;84;25437;-67
2022/10/24 02:11:13;;;;;;;45.88;27.70;;;;;;;9.50;98.94;100316.28;1675397;85;25559;-68
2022/10/24 02:13:52;;;;;;;40.78;26.93;;;;;;;9.48;99.05;100304.98;1679154;82;25699;-68
2022/10/24 02:16:20;;;;;;;35.63;25.43;;;;;;;9.45;99.05;100291.55;1737107;82;27207;-70
2022/10/24 02:18:52;;;;;;;36.77;26.05;;;;;;;9.44;99.12;100283.19;1738864;82;25321;-68
2022/10/24 02:21:37;;;;;;;42.78;25.77;;;;;;;9.42;98.88;100271.91;1728747;82;25458;-68
2022/10/24 02:24:18;;;;;;;38.33;26.07;;;;;;;9.41;98.89;100263.55;1736208;82;25557;-68
2022/10/24 02:27:00;;;;;;;41.25;26.17;;;;;;;9.40;98.83;100268.71;1700113;83;25398;-67
2022/10/24 02:29:45;;;;;;;38.83;27.02;;;;;;;9.37;98.88;100263.12;1659676;85;29365;-68
2022/10/24 02:32:20;;;;;;;42.58;28.00;;;;;;;9.37;98.96;100253.67;1675755;84;25827;-68
2022/10/24 02:34:48;;;;;;;44.53;27.30;;;;;;;9.32;99.34;100263.45;1697441;83;25409;-67
2022/10/24 02:37:17;;;;;;;41.55;26.80;;;;;;;9.32;99.41;100262.10;1695357;83;25344;-67
2022/10/24 02:39:47;;;;;;;41.42;28.02;;;;;;;9.31;99.54;100260.52;1727856;82;30544;-68
2022/10/24 02:42:15;;;;;;;;;;;;;;;9.32;99.66;100258.05;1728126;82;27201;-68
2022/10/24 02:44:46;;;;;;;38.50;26.93;;;;;;;9.31;99.91;100252.42;1732704;82;25643;-68
2022/10/24 02:47:15;;;;;;;40.05;27.67;;;;;;;9.30;99.97;100259.47;1732999;82;25509;-68
2022/10/24 02:49:42;;;;;;;43.67;26.80;;;;;;;9.28;99.84;100257.07;1739986;81;25483;-68
2022/10/24 02:52:10;;;;;;;41.92;27.80;;;;;;;9.28;99.97;100263.00;1719596;82;25498;-68
2022/10/24 02:54:38;;;;;;;42.30;27.77;;;;;;;9.27;99.99;100251.41;1720231;81;28033;-68
2022/10/24 02:57:05;;;;;;;42.70;29.05;;;;;;;9.26;100.00;100260.63;1719449;81;25580;-69
2022/10/24 02:59:32;;;;;;;41.70;27.73;;;;;;;9.26;100.00;100262.50;1742653;82;25511;-68
2022/10/24 03:01:59;;;;;;;45.92;28.92;;;;;;;9.25;100.00;100271.16;1743750;81;25625;-68
2022/10/24 03:04:26;;;;;;;42.58;29.07;;;;;;;9.25;100.00;100269.02;1730793;82;25516;-68
2022/10/24 03:06:53;;;;;;;42.58;28.80;;;;;;;9.24;100.00;100268.20;1739732;81;27256;-69
2022/10/24 03:09:20;;;;;;;41.95;28.30;;;;;;;9.24;100.00;100259.31;1738402;82;25631;-68
2022/10/24 03:11:48;;;;;;;45.12;29.18;;;;;;;9.25;100.00;100259.58;1736996;80;25595;-68
2022/10/24 03:14:16;;;;;;;50.00;29.02;;;;;;;9.25;100.00;100260.36;1732999;81;25384;-68
2022/10/24 03:16:43;;;;;;;55.33;28.42;;;;;;;9.26;100.00;100257.11;1722354;81;25507;-68
2022/10/24 03:19:10;;;;;;;62.45;29.52;;;;;;;9.26;100.00;100251.18;1729978;82;27279;-68
2022/10/24 03:21:37;;;;;;;50.85;29.87;;;;;;;9.26;100.00;100244.96;1746920;81;25348;-70
2022/10/24 03:24:05;;;;;;;56.48;27.73;;;;;;;9.27;100.00;100244.66;1734967;82;25530;-70
2022/10/24 03:26:32;;;;;;;46.73;27.65;;;;;;;9.27;100.00;100247.92;1740346;81;25882;-70
2022/10/24 03:29:00;;;;;;;44.77;28.10;;;;;;;9.26;100.00;100254.41;1748056;82;25354;-70
2022/10/24 03:31:29;;;;;;;52.80;27.80;;;;;;;9.27;100.00;100250.06;1736459;81;27268;-70
2022/10/24 03:33:57;;;;;;;;;;;;;;;9.27;100.00;100251.41;1722069;82;25613;-69
2022/10/24 03:36:25;;;;;;;42.15;27.00;;;;;;;9.28;100.00;100245.45;1723959;82;25498;-68
2022/10/24 03:38:52;;;;;;;86.25;31.15;;;;;;;9.28;100.00;100235.48;1734131;82;25432;-68
2022/10/24 03:41:19;;;;;;;47.88;28.23;;;;;;;9.28;100.00;100236.01;1733725;82;25374;-68
2022/10/24 03:43:46;;;;;;;53.50;28.35;;;;;;;9.28;100.00;100233.30;1734124;82;27239;-68
2022/10/24 03:46:13;;;;;;;54.45;29.42;;;;;;;9.29;100.00;100249.20;1734066;82;25544;-68
2022/10/24 03:48:40;;;;;;;68.30;29.85;;;;;;;9.29;100.00;100238.97;1734369;82;25305;-68
2022/10/24 03:51:08;;;;;;;57.90;29.35;;;;;;;9.31;100.00;100236.23;1734282;82;25558;-68
2022/10/24 03:53:35;;;;;;;86.32;29.90;;;;;;;9.33;100.00;100242.65;1726728;82;25688;-68
2022/10/24 03:56:05;;;;;;;82.00;30.08;;;;;;;9.34;100.00;100242.91;1719511;82;28010;-68
2022/10/24 03:58:32;;;;;;;53.87;28.57;;;;;;;9.34;100.00;100241.00;1725884;82;25556;-68
2022/10/24 04:01:00;;;;;;;76.53;29.82;;;;;;;9.35;100.00;100231.02;1710198;82;25509;-68
2022/10/24 04:03:27;;;;;;;55.00;28.07;;;;;;;9.35;100.00;100226.41;1717444;82;25672;-68
2022/10/24 04:05:55;;;;;;;74.80;29.67;;;;;;;9.37;100.00;100223.98;1715888;82;25365;-68
2022/10/24 04:08:22;;;;;;;59.93;29.02;;;;;;;9.38;100.00;100227.73;1727913;82;27208;-68
2022/10/24 04:10:49;;;;;;;58.63;29.20;;;;;;;9.38;100.00;100229.61;1717352;82;25331;-68
2022/10/24 04:13:16;;;;;;;47.95;28.20;;;;;;;9.38;100.00;100220.98;1712461;82;25474;-68
2022/10/24 04:15:44;;;;;;;56.08;28.57;;;;;;;9.40;100.00;100218.77;1718830;82;26004;-69
2022/10/24 04:18:11;;;;;;;53.05;31.00;;;;;;;9.41;100.00;100224.39;1724031;82;25566;-68
2022/10/24 04:20:38;;;;;;;49.45;29.80;;;;;;;9.42;100.00;100223.87;1720420;82;27245;-68
2022/10/24 04:23:05;;;;;;;56.02;30.65;;;;;;;9.43;100.00;100224.09;1734152;82;25404;-68
2022/10/24 04:25:32;;;;;;;51.00;30.82;;;;;;;9.41;100.00;100216.86;1714826;82;25348;-68
2022/10/24 04:27:59;;;;;;;53.42;31.48;;;;;;;9.43;100.00;100213.30;1719253;82;25479;-68
2022/10/24 04:30:28;;;;;;;48.23;30.12;;;;;;;9.44;100.00;100206.25;1707938;82;25588;-68
2022/10/24 04:32:56;;;;;;;49.03;31.20;;;;;;;9.57;100.00;100208.69;1710961;82;27986;-68
2022/10/24 04:35:24;;;;;;;49.93;30.45;;;;;;;9.57;100.00;100208.69;1736553;82;25479;-68
2022/10/24 04:37:52;;;;;;;49.85;30.55;;;;;;;9.45;100.00;100190.84;1738339;82;25518;-68
2022/10/24 04:40:20;;;;;;;52.08;30.88;;;;;;;9.45;100.00;100186.27;1735172;82;25549;-68
2022/10/24 04:42:47;;;;;;;50.15;29.02;;;;;;;9.47;100.00;100190.80;1736310;82;25657;-68
2022/10/24 04:45:14;;;;;;;51.42;30.25;;;;;;;9.47;100.00;100180.00;1720249;82;27261;-68
2022/10/24 04:47:42;;;;;;;46.55;29.45;;;;;;;9.48;100.00;100179.44;1717996;82;25375;-68
2022/10/24 04:50:10;;;;;;;54.67;31.37;;;;;;;9.48;100.00;100175.39;1736477;82;25414;-68
2022/10/24 04:52:37;;;;;;;51.15;31.05;;;;;;;9.50;100.00;100170.48;1729087;81;26020;-68
2022/10/24 04:55:07;;;;;;;51.92;30.10;;;;;;;9.48;100.00;100166.77;1738952;82;25306;-68
2022/10/24 04:57:34;;;;;;;50.85;29.85;;;;;;;9.49;100.00;100156.75;1739111;82;27271;-68
2022/10/24 05:00:04;;;;;;;51.30;31.35;;;;;;;9.49;100.00;100150.00;1705892;82;25957;-68
2022/10/24 05:02:32;;;;;;;50.35;30.17;;;;;;;9.50;100.00;100155.63;1728208;82;25329;-68
2022/10/24 05:05:00;;;;;;;48.50;31.95;;;;;;;9.50;100.00;100158.33;1725749;82;27410;-68
2022/10/24 05:07:27;;;;;;;48.02;30.82;;;;;;;9.49;100.00;100152.14;1704201;82;25487;-68
2022/10/24 05:09:54;;;;;;;48.65;32.30;;;;;;;9.50;100.00;100155.09;1718023;82;27224;-68
2022/10/24 05:12:22;;;;;;;47.83;31.37;;;;;;;9.52;100.00;100146.70;1717991;82;25621;-68
2022/10/24 05:14:51;;;;;;;49.33;30.82;;;;;;;9.51;100.00;100142.39;1725347;82;25377;-68
2022/10/24 05:17:19;;;;;;;51.88;30.97;;;;;;;9.53;100.00;100144.22;1712190;82;32371;-67
2022/10/24 05:19:47;;;;;;;49.30;30.72;;;;;;;9.52;100.00;100140.73;1728304;82;25385;-68
2022/10/24 05:22:14;;;;;;;48.00;30.25;;;;;;;9.52;100.00;100129.94;1713323;82;27261;-68
2022/10/24 05:24:41;;;;;;;47.62;30.68;;;;;;;9.55;100.00;100131.21;1707908;82;27303;-68
2022/10/24 05:27:09;;;;;;;42.80;29.80;;;;;;;9.53;100.00;100133.42;1726979;82;25318;-68
2022/10/24 05:29:36;;;;;;;48.30;30.70;;;;;;;9.54;100.00;100135.82;1691209;82;25608;-68
2022/10/24 05:32:05;;;;;;;51.95;32.23;;;;;;;9.54;100.00;100135.03;1711716;82;25349;-68
2022/10/24 05:34:32;;;;;;;49.63;31.30;;;;;;;9.53;100.00;100136.13;1718393;82;27325;-68
2022/10/24 05:36:59;;;;;;;51.70;30.92;;;;;;;9.53;100.00;100132.08;1707743;82;25540;-68
2022/10/24 05:39:27;;;;;;;47.43;30.35;;;;;;;9.53;100.00;100132.89;1730095;82;25479;-68
2022/10/24 05:41:55;;;;;;;44.67;30.80;;;;;;;9.54;100.00;100124.23;1727596;82;26230;-68
2022/10/24 05:44:22;;;;;;;46.68;30.75;;;;;;;9.54;100.00;100116.13;1723416;82;25514;-69
2022/10/24 05:46:50;;;;;;;45.00;30.02;;;;;;;9.56;100.00;100119.31;1708308;82;27827;-70
2022/10/24 05:49:16;;;;;;;50.83;31.62;;;;;;;9.59;100.00;100113.88;1711201;82;25409;-68
2022/10/24 05:51:44;;;;;;;50.43;32.20;;;;;;;9.60;100.00;100117.59;1716569;82;25330;-68
2022/10/24 05:54:11;;;;;;;54.60;33.65;;;;;;;9.60;100.00;100112.75;1738657;82;25523;-68
2022/10/24 05:56:38;;;;;;;45.30;31.05;;;;;;;9.65;100.00;100123.43;1715569;82;25578;-68
2022/10/24 05:59:06;;;;;;;49.42;31.35;;;;;;;9.67;100.00;100136.06;1737381;82;29425;-68
2022/10/24 06:01:34;;;;;;;52.27;31.07;;;;;;;9.69;100.00;100139.28;1724641;82;25678;-68
2022/10/24 06:04:01;;;;;;;49.88;30.20;;;;;;;9.70;100.00;100132.23;1719930;82;25536;-68
2022/10/24 06:06:28;;;;;;;47.00;29.87;;;;;;;9.72;100.00;100135.41;1721529;82;25590;-68
2022/10/24 06:08:55;;;;;;;46.88;30.48;;;;;;;9.75;100.00;100131.84;1734646;82;25628;-68
2022/10/24 06:11:23;;;;;;;45.80;29.85;;;;;;;9.77;100.00;100120.97;1716800;82;27762;-68
2022/10/24 06:13:50;;;;;;;45.40;30.12;;;;;;;9.80;100.00;100124.97;1732733;82;25698;-68
2022/10/24 06:16:17;;;;;;;44.35;30.23;;;;;;;9.81;100.00;100132.77;1705174;82;25489;-68
2022/10/24 06:18:45;;;;;;;47.83;30.70;;;;;;;9.83;100.00;100136.52;1711060;82;25493;-68
2022/10/24 06:21:14;;;;;;;43.13;29.90;;;;;;;9.85;100.00;100141.05;1736459;82;25541;-68
2022/10/24 06:23:41;;;;;;;53.90;32.45;;;;;;;9.86;100.00;100145.36;1727878;82;27209;-68
2022/10/24 06:26:10;;;;;;;45.98;29.90;;;;;;;9.90;100.00;100151.73;1693196;83;25740;-68
2022/10/24 06:28:38;;;;;;;48.02;30.62;;;;;;;9.94;100.00;100161.38;1735507;80;25521;-68
2022/10/24 06:31:07;;;;;;;48.55;30.57;;;;;;;9.95;100.00;100152.17;1738778;82;25949;-68
2022/10/24 06:33:34;;;;;;;44.08;31.15;;;;;;;9.99;100.00;100151.79;1739041;82;25374;-68
2022/10/24 06:36:04;;;;;;;46.98;31.68;;;;;;;10.01;100.00;100157.14;1709358;82;27914;-68
2022/10/24 06:38:32;;;;;;;;;;;;;;;10.03;100.00;100152.23;1673517;85;25498;-68
2022/10/24 06:41:09;;;;;;;48.30;30.95;;;;;;;10.06;100.00;100156.20;1680576;85;25417;-68
2022/10/24 06:43:37;;;;;;;50.55;30.80;;;;;;;10.05;100.00;100149.22;1719518;82;25565;-68
2022/10/24 06:46:06;;;;;;;53.85;33.05;;;;;;;10.07;100.00;100138.89;1721719;80;25549;-68
2022/10/24 06:48:35;;;;;;;55.40;32.48;;;;;;;10.08;100.00;100143.20;1671202;85;29698;-68
2022/10/24 06:51:03;;;;;;;49.00;32.20;;;;;;;10.09;100.00;100136.11;1649875;85;25653;-69
2022/10/24 06:53:31;;;;;;;52.60;31.77;;;;;;;10.13;100.00;100140.91;1673809;85;25480;-68
2022/10/24 06:56:02;;;;;;;50.45;31.97;;;;;;;10.13;100.00;100136.84;1702224;83;25562;-68
2022/10/24 06:58:32;;;;;;;50.92;31.65;;;;;;;10.17;100.00;100141.33;1734835;82;25384;-67
2022/10/24 07:01:08;;;;;;;50.43;32.73;;;;;;;10.19;100.00;100139.67;1729000;82;27897;-67
2022/10/24 07:03:36;;;;;;;48.78;29.98;;;;;;;10.19;100.00;100149.92;1724106;82;25695;-67
2022/10/24 07:06:11;;;;;;;47.50;30.65;;;;;;;10.22;100.00;100166.09;1674767;85;25320;-67
2022/10/24 07:08:38;;;;;;;47.08;30.30;;;;;;;10.22;100.00;100185.02;1694506;83;25715;-67
2022/10/24 07:11:05;;;;;;;47.45;29.52;;;;;;;10.24;100.00;100190.34;1733783;82;25613;-67
2022/10/24 07:13:32;;;;;;;43.60;29.30;;;;;;;10.25;100.00;100197.36;1735675;82;27251;-67
2022/10/24 07:16:00;;;;;;;45.63;31.75;;;;;;;10.27;100.00;100184.32;1715484;82;25730;-67
2022/10/24 07:18:27;;;;;;;45.17;30.15;;;;;;;10.29;100.00;100189.42;1715048;82;25465;-68
2022/10/24 07:20:58;;;;;;;46.98;29.67;;;;;;;10.31;100.00;100185.84;1739219;82;25365;-70
2022/10/24 07:23:25;;;;;;;46.35;31.00;;;;;;;10.33;100.00;100199.09;1711651;81;25336;-68
2022/10/24 07:25:52;;;;;;;46.55;31.57;;;;;;;10.34;100.00;100202.84;1732969;80;27189;-68
2022/10/24 07:28:19;;;;;;;45.30;29.45;;;;;;;10.36;100.00;100201.18;1713854;82;25544;-68
2022/10/24 07:30:47;;;;;;;46.10;30.35;;;;;;;10.38;100.00;100203.80;1730937;82;25341;-68
2022/10/24 07:33:15;;;;;;;45.90;29.02;;;;;;;10.41;100.00;100207.25;1719920;82;25540;-69
2022/10/24 07:35:43;;;;;;;40.67;28.92;;;;;;;10.45;100.00;100212.83;1701614;82;25499;-70
2022/10/24 07:38:10;;;;;;;44.85;30.08;;;;;;;10.48;100.00;100214.13;1711999;82;27283;-68
2022/10/24 07:40:37;;;;;;;42.15;28.62;;;;;;;10.51;100.00;100212.17;1718921;82;25262;-68
2022/10/24 07:43:04;;;;;;;42.45;28.65;;;;;;;10.53;100.00;100218.06;1719271;81;25344;-67
2022/10/24 07:45:32;;;;;;;44.05;28.35;;;;;;;10.54;100.00;100202.05;1733317;82;25475;-68
2022/10/24 07:47:59;;;;;;;43.65;28.12;;;;;;;10.56;100.00;100193.89;1748211;82;25517;-68
2022/10/24 07:50:27;;;;;;;52.05;29.65;;;;;;;10.57;100.00;100182.51;1733101;80;26373;-68
2022/10/24 07:52:54;;;;;;;45.83;27.65;;;;;;;10.60;100.00;100190.80;1741080;82;25494;-68
2022/10/24 07:55:22;;;;;;;41.83;27.30;;;;;;;10.63;100.00;100179.36;1740657;82;25503;-69
2022/10/24 07:57:49;;;;;;;43.20;28.17;;;;;;;10.69;100.00;100164.34;1740322;82;25596;-69
2022/10/24 08:00:17;;;;;;;47.73;28.92;;;;;;;10.71;100.00;100149.95;1719893;81;25617;-69
2022/10/24 08:02:44;;;;;;;43.30;29.92;;;;;;;10.75;100.00;100141.46;1727065;82;27470;-69
2022/10/24 08:05:13;;;;;;;43.13;29.10;;;;;;;10.76;100.00;100123.56;1733297;82;25479;-69
2022/10/24 08:07:42;;;;;;;44.13;29.37;;;;;;;10.78;100.00;100128.10;1716383;82;25570;-69
2022/10/24 08:10:12;;;;;;;44.40;30.40;;;;;;;10.80;100.00;100148.08;1741382;81;25556;-69
2022/10/24 08:12:39;;;;;;;39.35;29.18;;;;;;;10.84;100.00;100153.09;1738222;82;25347;-70
2022/10/24 08:15:08;;;;;;;43.28;28.35;;;;;;;10.86;100.00;100157.62;1730740;81;27262;-70
2022/10/24 08:17:36;;;;;;;43.58;28.65;;;;;;;10.86;100.00;100157.62;1735549;82;25686;-70
2022/10/24 08:20:06;;;;;;;42.67;28.15;;;;;;;10.89;100.00;100154.30;1749608;81;25609;-69
2022/10/24 08:22:34;;;;;;;41.75;28.15;;;;;;;10.89;100.00;100143.48;1738880;81;25944;-69
2022/10/24 08:25:04;;;;;;;38.90;27.27;;;;;;;10.91;100.00;100144.52;1728738;81;25474;-69
2022/10/24 08:27:32;;;;;;;39.80;26.30;;;;;;;10.93;100.00;100148.52;1726111;80;27080;-70
2022/10/24 08:29:59;;;;;;;38.58;27.35;;;;;;;10.95;100.00;100149.00;1746295;82;25593;-70
2022/10/24 08:32:26;;;;;;;41.88;27.35;;;;;;;10.99;100.00;100134.28;1739053;81;25332;-69
2022/10/24 08:34:53;;;;;;;37.08;26.25;;;;;;;11.05;100.00;100133.03;1747569;80;25607;-70
2022/10/24 08:37:20;;;;;;;40.17;26.62;;;;;;;11.11;100.00;100141.22;1750697;81;26104;-70
2022/10/24 08:39:48;;;;;;;40.30;26.55;;;;;;;11.16;100.00;100140.28;1722303;81;27191;-70
2022/10/24 08:42:17;;;;;;;39.45;25.92;;;;;;;11.21;100.00;100134.14;1739618;81;25934;-69
2022/10/24 08:44:46;;;;;;;32.75;24.70;;;;;;;11.25;100.00;100134.88;1735010;82;25724;-70
2022/10/24 08:47:34;;;;;;;38.63;25.88;;;;;;;11.27;100.00;100132.64;1726382;82;25605;-70
2022/10/24 08:50:22;;;;;;;32.78;24.18;;;;;;;11.31;100.00;100129.55;1741985;81;25599;-69
2022/10/24 08:53:14;;;;;;;34.30;24.47;;;;;;;11.40;100.00;100125.72;1741332;81;27213;-68
2022/10/24 08:55:50;;;;;;;32.53;23.10;;;;;;;11.49;100.00;100122.22;1722064;82;25657;-69
2022/10/24 08:58:34;;;;;;;35.60;24.50;;;;;;;11.53;100.00;100143.50;1716131;81;25519;-68
2022/10/24 09:01:07;;;;;;;34.58;23.15;;;;;;;11.53;100.00;100133.45;1702844;82;25615;-68
2022/10/24 09:03:45;;;;;;;35.23;23.73;;;;;;;11.54;100.00;100135.06;1722944;82;25620;-69
2022/10/24 09:06:25;;;;;;;35.30;24.72;;;;;;;11.55;100.00;100136.64;1727543;81;28119;-68
2022/10/24 09:08:58;;;;;;;30.52;22.07;;;;;;;11.56;100.00;100149.61;1702693;82;25610;-68
2022/10/24 09:11:47;;;;;;;35.03;22.67;;;;;;;11.54;100.00;100145.08;1719735;82;25830;-70
2022/10/24 09:14:20;;;;;;;30.80;22.65;;;;;;;11.54;100.00;100148.60;1684420;84;26063;-68
2022/10/24 09:16:56;;;;;;;34.90;24.63;;;;;;;11.62;100.00;100149.70;1723647;82;25552;-69
2022/10/24 09:19:27;;;;;;;35.50;24.12;;;;;;;11.70;100.00;100138.07;1707317;82;29209;-68
2022/10/24 09:21:57;;;;;;;33.48;23.32;;;;;;;11.84;100.00;100152.80;1717127;83;25641;-68
2022/10/24 09:24:44;;;;;;;31.62;23.42;;;;;;;11.91;100.00;100146.92;1720031;81;25567;-68
2022/10/24 09:27:17;;;;;;;33.78;22.25;;;;;;;11.98;100.00;100145.08;1705132;82;25626;-68
2022/10/24 09:29:44;;;;;;;37.60;23.73;;;;;;;12.04;100.00;100147.88;1702640;83;25710;-68
2022/10/24 09:32:19;;;;;;;33.30;23.50;;;;;;;12.14;100.00;100135.33;1716507;82;27251;-69
2022/10/24 09:34:48;;;;;;;32.73;23.00;;;;;;;12.37;100.00;100139.16;1717776;82;25521;-70
2022/10/24 09:37:43;;;;;;;32.83;22.82;;;;;;;12.54;100.00;100130.95;1711254;81;25545;-69
2022/10/24 09:40:30;;;;;;;35.70;23.57;;;;;;;12.92;100.00;100134.75;1700208;82;25743;-70
2022/10/24 09:43:24;;;;;;;30.32;21.97;;;;;;;13.36;100.00;100137.44;1702584;83;26177;-70
2022/10/24 09:46:05;;;;;;;28.00;20.88;;;;;;;13.67;100.00;100138.16;1707798;83;27031;-69
2022/10/24 09:48:56;;;;;;;28.17;19.95;;;;;;;13.71;100.00;100139.09;1694265;83;25634;-69
2022/10/24 09:51:36;;;;;;;26.75;20.48;;;;;;;13.66;99.62;100123.78;1691263;82;25633;-70
2022/10/24 09:54:22;;;;;;;27.67;19.15;;;;;;;13.57;98.13;100115.70;1688332;84;25821;-69
2022/10/24 09:57:07;;;;;;;26.00;20.20;;;;;;;13.53;97.09;100117.48;1689789;83;25376;-69
2022/10/24 09:59:45;;;;;;;26.05;20.30;;;;;;;13.48;97.58;100112.83;1694087;82;27801;-69
2022/10/24 10:02:35;;;;;;;28.90;20.15;;;;;;;13.53;98.25;100118.05;1694952;83;25916;-68
2022/10/24 10:05:24;;;;;;;25.68;19.82;;;;;;;13.54;98.51;100110.14;1679405;82;25539;-69
2022/10/24 10:07:52;;;;;;;30.43;20.05;;;;;;;13.56;97.67;100118.18;1685111;82;25851;-69
2022/10/24 10:10:33;;;;;;;26.85;20.12;;;;;;;13.60;97.68;100112.88;1692507;81;25588;-69
2022/10/24 10:13:22;;;;;;;31.07;20.85;;;;;;;13.67;97.67;100113.69;1711332;82;27781;-68
2022/10/24 10:16:01;;;;;;;27.95;19.52;;;;;;;13.73;97.63;100106.94;1694463;83;25470;-67
2022/10/24 10:18:41;;;;;;;;;;;;;;;13.85;98.67;100108.33;1709263;82;25521;-69
2022/10/24 10:21:19;;;;;;;23.95;18.07;;;;;;;13.97;97.61;100117.88;1701681;82;26293;-69
2022/10/24 10:23:53;;;;;;;25.45;18.90;;;;;;;13.96;96.61;100112.22;1713320;82;25625;-68
2022/10/24 10:26:31;;;;;;;23.07;17.75;;;;;;;14.04;96.53;100114.60;1695672;82;27178;-66
2022/10/24 10:29:07;;;;;;;28.23;18.77;;;;;;;14.09;96.08;100110.30;1701234;82;25777;-67
2022/10/24 10:31:42;;;;;;;28.65;18.60;;;;;;;14.16;95.75;100105.10;1703265;82;25634;-67
2022/10/24 10:34:27;;;;;;;26.45;18.00;;;;;;;14.25;94.64;100115.09;1715624;82;25573;-67
2022/10/24 10:36:59;;;;;;;24.25;18.23;;;;;;;14.26;94.26;100111.25;1675255;82;25499;-67
2022/10/24 10:40:20;;;;;;;23.73;16.97;;;;;;;14.33;94.19;100107.40;1719720;83;26716;-67
2022/10/24 10:42:58;;;;;;;23.73;17.25;;;;;;;14.65;96.49;100111.19;1699504;82;25370;-67
2022/10/24 10:45:52;;;;;;;24.80;16.75;;;;;;;15.01;94.74;100110.14;1709757;82;25332;-65
2022/10/24 10:48:34;;;;;;;26.48;17.27;;;;;;;15.21;94.10;100102.95;1696636;83;25621;-68
2022/10/24 10:51:27;;;;;;;22.20;16.55;;;;;;;15.63;95.21;100096.55;1678862;85;25626;-67
2022/10/24 10:54:00;;;;;;;22.37;16.75;;;;;;;16.13;94.36;100093.59;1678759;85;27970;-67
2022/10/24 10:56:47;;;;;;;25.55;16.20;;;;;;;16.57;93.72;100097.59;1677743;84;25667;-68
2022/10/24 10:59:41;;;;;;;22.13;15.70;;;;;;;16.94;92.76;100095.90;1679036;85;25592;-67
2022/10/24 11:02:26;;;;;;;20.88;14.73;;;;;;;17.16;89.16;100108.90;1664399;84;25710;-69
2022/10/24 11:05:24;;;;;;;21.68;15.40;;;;;;;17.26;87.50;100104.00;1678842;84;25654;-67
2022/10/24 11:08:00;;;;;;;17.73;14.85;;;;;;;17.35;86.64;100113.59;1679138;85;27272;-67
2022/10/24 11:10:33;;;;;;;19.80;15.45;;;;;;;17.30;84.74;100113.09;1683684;84;26059;-67
2022/10/24 11:13:06;;;;;;;19.52;14.47;;;;;;;17.12;84.15;100114.06;1683525;84;25388;-67
2022/10/24 11:15:41;;;;;;;19.98;14.40;;;;;;;17.03;84.46;100106.66;1683964;84;25698;-67
2022/10/24 11:18:21;;;;;;;21.30;15.63;;;;;;;16.94;84.95;100100.81;1683707;84;25534;-68
2022/10/24 11:21:06;;;;;;;20.23;15.15;;;;;;;16.85;83.90;100107.02;1683134;84;27571;-68
2022/10/24 11:23:39;;;;;;;22.98;14.45;;;;;;;16.75;83.59;100108.36;1683629;84;25670;-67
2022/10/24 11:26:18;;;;;;;19.60;15.50;;;;;;;16.64;83.29;100110.62;1689275;82;25529;-68
2022/10/24 11:29:02;;;;;;;20.80;13.53;;;;;;;16.58;83.79;100103.25;1699752;84;25549;-68
2022/10/24 11:31:40;;;;;;;23.62;15.23;;;;;;;16.54;84.71;100094.98;1708187;83;25444;-68
2022/10/24 11:34:31;;;;;;;29.10;14.18;;;;;;;16.50;83.73;100100.94;1708373;82;27239;-68